Time;durP1;ratioP1;P1;durP2;ratioP2;P2;SDS_P1;SDS_P2;PMS_P1;PMS_P2;Temp;Humidity;BMP_temperature;BMP_pressure;BME280_temperature;BME280_humidity;BME280_pressure;Samples;Min_cycle;Max_cycle;Signal;HPM_P1;HPM_P2
2022/05/22 00:00:07;;;;;;;6.10;3.10;;;22.20;99.90;;;;;;5039444;28;20396;-50
2022/05/22 00:02:33;;;;;;;8.93;2.87;;;22.30;99.90;;;;;;5038435;28;20025;-55
2022/05/22 00:04:59;;;;;;;8.13;3.88;;;22.30;99.90;;;;;;5033872;28;20033;-58
2022/05/22 00:07:25;;;;;;;10.25;3.45;;;22.40;99.90;;;;;;5041214;28;20033;-53
2022/05/22 00:09:50;;;;;;;5.65;3.05;;;22.40;99.90;;;;;;5039774;28;20064;-49
2022/05/22 00:12:16;;;;;;;7.93;2.55;;;22.50;99.90;;;;;;5031938;28;20080;-51
2022/05/22 00:14:42;;;;;;;5.30;3.60;;;22.40;99.90;;;;;;5038373;28;20061;-58
2022/05/22 00:17:09;;;;;;;5.20;2.75;;;22.40;99.90;;;;;;5042657;28;20115;-58
2022/05/22 00:19:36;;;;;;;4.95;3.10;;;22.40;99.90;;;;;;5035026;28;20041;-55
2022/05/22 00:22:02;;;;;;;6.30;3.22;;;22.40;99.90;;;;;;5033867;28;20041;-51
2022/05/22 00:24:30;;;;;;;9.32;3.35;;;22.40;99.90;;;;;;5052084;28;20486;-55
2022/05/22 00:26:57;;;;;;;6.57;2.97;;;22.30;99.90;;;;;;5016026;28;20033;-52
2022/05/22 00:29:23;;;;;;;7.50;3.10;;;22.20;99.90;;;;;;5031021;28;20044;-56
2022/05/22 00:31:49;;;;;;;6.25;2.85;;;22.10;99.90;;;;;;5033192;28;20091;-55
2022/05/22 00:34:15;;;;;;;7.05;2.70;;;21.90;99.90;;;;;;5033684;28;20037;-57
2022/05/22 00:36:42;;;;;;;5.28;3.15;;;21.80;99.90;;;;;;5038696;28;20045;-54
2022/05/22 00:39:07;;;;;;;7.00;3.00;;;21.70;99.90;;;;;;5033677;28;20052;-53
2022/05/22 00:41:34;;;;;;;5.13;3.20;;;21.60;99.90;;;;;;5035710;28;20095;-54
2022/05/22 00:44:02;;;;;;;12.00;3.95;;;21.60;99.90;;;;;;5034961;28;20075;-51
2022/05/22 00:46:32;;;;;;;12.32;3.78;;;21.60;99.90;;;;;;5034029;28;20099;-57
2022/05/22 00:49:18;;;;;;;15.48;5.18;;;21.50;99.90;;;;;;5034143;28;20600;-49
2022/05/22 00:52:07;;;;;;;10.90;3.35;;;21.40;99.90;;;;;;5027389;28;20038;-54
2022/05/22 00:55:08;;;;;;;9.95;3.60;;;21.40;99.90;;;;;;5031873;28;20039;-54
2022/05/22 00:57:36;;;;;;;12.10;4.13;;;21.30;99.90;;;;;;4964617;28;20506;-51
2022/05/22 01:00:17;;;;;;;10.30;4.35;;;21.00;99.90;;;;;;4955802;28;20581;-56
2022/05/22 01:05:28;;;;;;;6.95;4.18;;;21.00;99.90;;;;;;4972016;28;20041;-52
2022/05/22 01:07:57;;;;;;;9.38;4.53;;;21.10;99.90;;;;;;4972220;28;20039;-53
2022/05/22 01:10:24;;;;;;;9.45;4.60;;;21.20;99.90;;;;;;4971400;28;20023;-54
2022/05/22 01:12:50;;;;;;;8.15;4.03;;;21.20;99.90;;;;;;4971594;28;20085;-50
2022/05/22 01:15:16;;;;;;;8.23;4.22;;;21.20;99.90;;;;;;4971352;28;20031;-52
2022/05/22 01:17:47;;;;;;;7.60;3.97;;;21.10;99.90;;;;;;4971854;28;20175;-51
2022/05/22 01:20:14;;;;;;;8.20;3.95;;;21.10;99.90;;;;;;4971201;28;20034;-53
2022/05/22 01:22:41;;;;;;;6.70;3.63;;;20.80;99.90;;;;;;4965179;28;20479;-53
2022/05/22 01:25:09;;;;;;;6.57;3.30;;;20.70;99.90;;;;;;4971925;28;20058;-51
2022/05/22 01:27:36;;;;;;;6.10;3.45;;;20.60;99.90;;;;;;4967339;28;20043;-54
2022/05/22 01:30:24;;;;;;;6.60;3.83;;;20.40;99.90;;;;;;4971555;28;20038;-52
2022/05/22 01:32:49;;;;;;;6.80;3.40;;;20.40;99.90;;;;;;4970608;28;20390;-49
2022/05/22 01:35:19;;;;;;;6.38;3.85;;;20.30;99.90;;;;;;4992970;28;20040;-49
2022/05/22 01:37:45;;;;;;;6.97;3.53;;;20.50;99.90;;;;;;5033499;28;20037;-54
2022/05/22 01:40:12;;;;;;;6.20;3.80;;;20.30;99.90;;;;;;5033552;28;20037;-53
2022/05/22 01:42:39;;;;;;;7.70;3.80;;;20.10;99.90;;;;;;5035119;28;20025;-51
2022/05/22 01:45:06;;;;;;;4.20;2.90;;;20.20;99.90;;;;;;5033814;28;20033;-58
2022/05/22 01:47:34;;;;;;;5.95;3.72;;;20.30;99.90;;;;;;5019806;28;20041;-55
2022/05/22 01:50:00;;;;;;;7.53;3.47;;;20.30;99.90;;;;;;5040700;28;20025;-51
2022/05/22 01:52:25;;;;;;;4.07;3.45;;;20.30;99.90;;;;;;5044569;28;20539;-51
2022/05/22 01:54:51;;;;;;;6.07;3.10;;;20.10;99.90;;;;;;5032612;28;20378;-55
2022/05/22 01:57:17;;;;;;;7.43;3.58;;;19.90;99.90;;;;;;5033128;28;20053;-55
2022/05/22 01:59:43;;;;;;;5.10;3.22;;;19.60;99.90;;;;;;5035542;28;20041;-54
2022/05/22 02:02:08;;;;;;;5.43;2.75;;;19.40;99.90;;;;;;5035393;28;20396;-56
2022/05/22 02:04:34;;;;;;;6.63;2.80;;;19.20;99.90;;;;;;5032649;28;20025;-50
2022/05/22 02:09:44;;;;;;;7.13;3.80;;;19.30;99.90;;;;;;5034534;28;20504;-54
2022/05/22 02:12:10;;;;;;;6.28;3.50;;;19.50;99.90;;;;;;5051030;28;20138;-52
2022/05/22 02:14:36;;;;;;;5.25;3.83;;;19.60;99.90;;;;;;5038813;28;20030;-59
2022/05/22 02:17:02;;;;;;;9.15;4.03;;;19.70;99.90;;;;;;5038120;28;20129;-51
2022/05/22 02:19:27;;;;;;;10.52;4.03;;;19.80;99.90;;;;;;5054774;28;20083;-51
2022/05/22 02:21:53;;;;;;;8.15;3.78;;;19.80;99.90;;;;;;5043476;28;20028;-54
2022/05/22 02:24:19;;;;;;;6.38;3.25;;;19.70;99.90;;;;;;5037609;28;20508;-53
2022/05/22 02:26:45;;;;;;;5.68;3.50;;;19.40;99.90;;;;;;5037822;28;20044;-49
2022/05/22 02:29:10;;;;;;;5.03;3.25;;;19.20;99.90;;;;;;5036601;28;20112;-50
2022/05/22 02:31:36;;;;;;;6.90;3.95;;;19.00;99.90;;;;;;5029702;28;20033;-53
2022/05/22 02:34:03;;;;;;;6.25;3.67;;;18.80;99.90;;;;;;5040072;28;20427;-52
2022/05/22 02:36:28;;;;;;;4.15;3.00;;;18.80;99.90;;;;;;5040682;28;20401;-53
2022/05/22 02:38:54;;;;;;;5.97;2.22;;;19.00;99.90;;;;;;5035483;28;20037;-54
2022/05/22 02:41:21;;;;;;;6.18;2.42;;;19.10;99.90;;;;;;5040261;28;20029;-55
2022/05/22 02:43:47;;;;;;;4.20;3.05;;;18.90;99.90;;;;;;5037500;28;20039;-52
2022/05/22 02:46:15;;;;;;;6.72;3.00;;;19.20;99.90;;;;;;5043579;28;20032;-52
2022/05/22 02:48:42;;;;;;;5.40;3.08;;;19.30;99.90;;;;;;5043383;28;20029;-55
2022/05/22 02:51:17;;;;;;;4.22;3.40;;;19.30;99.90;;;;;;5039469;28;20032;-55
2022/05/22 02:53:43;;;;;;;4.63;2.90;;;19.40;99.90;;;;;;5030412;28;20155;-51
2022/05/22 02:56:12;;;;;;;4.38;3.00;;;19.20;99.90;;;;;;5039006;28;20448;-51
2022/05/22 02:58:37;;;;;;;4.28;2.72;;;18.90;99.90;;;;;;5036773;28;20041;-50
2022/05/22 03:01:03;;;;;;;5.78;3.30;;;18.80;99.90;;;;;;5035390;28;20022;-56
2022/05/22 03:03:30;;;;;;;4.85;3.00;;;18.90;99.90;;;;;;5039972;28;20138;-54
2022/05/22 03:08:40;;;;;;;5.63;3.20;;;19.10;99.90;;;;;;5037286;28;20453;-53
2022/05/22 03:11:06;;;;;;;7.93;3.78;;;19.20;99.90;;;;;;5037046;28;20052;-52
2022/05/22 03:13:33;;;;;;;6.18;3.40;;;19.40;99.90;;;;;;5036145;28;20389;-52
2022/05/22 03:15:59;;;;;;;6.00;3.95;;;19.40;99.90;;;;;;5036917;28;20037;-56
2022/05/22 03:18:25;;;;;;;4.97;3.30;;;19.30;99.90;;;;;;5034913;28;20032;-55
2022/05/22 03:20:51;;;;;;;6.03;3.47;;;19.30;99.90;;;;;;5036080;28;20021;-55
2022/05/22 03:23:17;;;;;;;8.10;3.75;;;19.20;99.90;;;;;;5037524;28;20074;-56
2022/05/22 03:25:45;;;;;;;4.88;3.63;;;19.20;99.90;;;;;;5036125;28;20048;-55
2022/05/22 03:28:11;;;;;;;7.43;4.00;;;19.10;99.90;;;;;;5042695;28;20184;-54
2022/05/22 03:30:36;;;;;;;3.67;2.33;;;19.10;99.90;;;;;;5044783;28;20025;-55
2022/05/22 03:33:02;;;;;;;3.35;2.65;;;19.10;99.90;;;;;;5035429;28;20045;-48
2022/05/22 03:35:29;;;;;;;6.97;3.67;;;19.10;99.90;;;;;;5040368;28;20029;-56
2022/05/22 03:37:55;;;;;;;5.43;2.95;;;19.00;99.90;;;;;;5034504;28;20038;-52
2022/05/22 03:40:21;;;;;;;5.30;2.97;;;19.20;99.90;;;;;;5041140;28;20584;-52
2022/05/22 03:42:47;;;;;;;5.45;3.45;;;19.20;99.90;;;;;;5036350;28;20117;-55
2022/05/22 03:45:13;;;;;;;5.75;3.60;;;19.30;99.90;;;;;;5037497;28;20021;-58
2022/05/22 03:47:39;;;;;;;5.03;3.55;;;19.20;99.90;;;;;;5033378;28;20432;-52
2022/05/22 03:50:11;;;;;;;5.82;3.75;;;19.30;99.90;;;;;;5029465;28;20127;-53
2022/05/22 03:52:43;;;;;;;7.13;3.50;;;19.30;99.90;;;;;;5053491;28;20045;-50
2022/05/22 03:55:12;;;;;;;5.85;3.08;;;19.40;99.90;;;;;;5039060;28;20044;-50
2022/05/22 03:57:37;;;;;;;10.68;3.72;;;19.50;99.90;;;;;;5032749;28;20072;-52
2022/05/22 04:00:10;;;;;;;8.52;3.60;;;19.50;99.90;;;;;;5032112;28;20068;-52
2022/05/22 04:02:35;;;;;;;5.60;3.38;;;19.50;99.90;;;;;;5024351;28;20041;-54
2022/05/22 04:05:03;;;;;;;7.80;4.00;;;19.60;99.90;;;;;;5032406;28;20041;-51
2022/05/22 04:07:29;;;;;;;3.92;2.70;;;19.60;99.90;;;;;;5037382;28;20041;-55
2022/05/22 04:09:56;;;;;;;4.30;3.20;;;19.70;99.90;;;;;;5033305;28;20021;-54
2022/05/22 04:12:22;;;;;;;5.15;2.95;;;19.80;99.90;;;;;;5032369;28;20081;-53
2022/05/22 04:14:48;;;;;;;4.40;3.00;;;19.80;99.90;;;;;;5031630;28;20072;-53
2022/05/22 04:17:14;;;;;;;6.38;3.63;;;19.90;99.90;;;;;;5050809;28;20072;-52
2022/05/22 04:19:40;;;;;;;6.45;3.63;;;20.00;99.90;;;;;;5034224;28;20513;-54
2022/05/22 04:22:06;;;;;;;4.60;3.80;;;20.20;99.90;;;;;;5030499;28;20034;-51
2022/05/22 04:27:16;;;;;;;7.13;3.80;;;20.30;99.90;;;;;;5033182;28;20067;-48
2022/05/22 04:29:41;;;;;;;6.20;4.13;;;20.50;99.90;;;;;;5031748;28;20049;-52
2022/05/22 04:32:09;;;;;;;5.47;4.03;;;20.60;99.90;;;;;;4977704;28;20056;-54
2022/05/22 04:34:35;;;;;;;5.45;4.22;;;20.80;99.90;;;;;;5033501;28;20087;-53
2022/05/22 04:37:01;;;;;;;6.00;4.57;;;20.80;99.90;;;;;;5035451;28;20061;-54
2022/05/22 04:39:27;;;;;;;5.57;4.70;;;20.90;99.90;;;;;;5032826;28;20592;-54
2022/05/22 04:41:52;;;;;;;7.00;4.25;;;20.90;99.90;;;;;;5051207;28;20116;-52
2022/05/22 04:44:18;;;;;;;5.57;4.60;;;20.90;99.90;;;;;;5037783;28;20029;-54
2022/05/22 04:46:45;;;;;;;5.32;4.60;;;21.00;99.90;;;;;;5033502;28;20040;-47
2022/05/22 04:49:11;;;;;;;6.55;4.43;;;21.10;99.90;;;;;;5031267;28;20037;-54
2022/05/22 04:51:37;;;;;;;7.22;4.85;;;21.10;99.90;;;;;;5034224;28;20091;-57
2022/05/22 04:54:03;;;;;;;6.97;4.57;;;21.10;99.90;;;;;;5038044;28;20040;-55
2022/05/22 04:56:29;;;;;;;5.93;4.47;;;21.20;99.90;;;;;;5033055;28;20037;-53
2022/05/22 04:58:56;;;;;;;6.70;4.80;;;21.30;99.90;;;;;;5034768;28;20040;-54
2022/05/22 05:01:21;;;;;;;7.95;4.68;;;21.40;99.90;;;;;;5047991;28;20102;-54
2022/05/22 05:03:47;;;;;;;7.53;5.05;;;21.50;99.90;;;;;;5031384;28;20033;-51
2022/05/22 05:06:13;;;;;;;7.65;5.22;;;21.40;99.90;;;;;;5037591;28;20021;-54
2022/05/22 05:08:39;;;;;;;7.60;4.65;;;21.40;99.90;;;;;;5035715;28;20040;-55
2022/05/22 05:11:05;;;;;;;8.15;5.22;;;21.30;99.90;;;;;;5039127;28;20394;-52
2022/05/22 05:13:31;;;;;;;6.47;4.95;;;21.40;99.90;;;;;;5032736;28;20037;-51
2022/05/22 05:16:11;;;;;;;6.22;5.50;;;21.40;99.90;;;;;;5037600;28;20358;-54
2022/05/22 05:18:38;;;;;;;8.45;4.85;;;21.30;99.90;;;;;;5032305;28;20040;-49
2022/05/22 05:21:10;;;;;;;6.28;5.03;;;21.30;99.90;;;;;;5034121;28;20042;-51
2022/05/22 05:23:37;;;;;;;6.00;4.90;;;21.20;99.90;;;;;;5037398;28;20049;-52
2022/05/22 05:26:03;;;;;;;7.63;5.25;;;21.10;99.90;;;;;;5037956;28;20030;-54
2022/05/22 05:28:29;;;;;;;8.55;5.43;;;21.10;99.90;;;;;;5032611;28;20038;-54
2022/05/22 05:30:55;;;;;;;9.05;5.82;;;21.10;99.90;;;;;;5034880;28;20038;-52
2022/05/22 05:33:21;;;;;;;6.45;4.95;;;21.00;99.90;;;;;;5033374;28;20442;-49
2022/05/22 05:35:47;;;;;;;5.93;4.30;;;21.00;99.90;;;;;;5048496;28;20099;-50
2022/05/22 05:38:13;;;;;;;5.43;4.38;;;21.00;99.90;;;;;;5031708;28;20473;-50
2022/05/22 05:40:40;;;;;;;5.60;4.10;;;21.00;99.90;;;;;;5032741;28;20105;-50
2022/05/22 05:43:06;;;;;;;5.50;4.53;;;21.10;99.90;;;;;;5047016;28;20046;-53
2022/05/22 05:45:33;;;;;;;8.90;5.78;;;21.30;99.90;;;;;;5033059;28;20045;-52
2022/05/22 05:47:58;;;;;;;5.15;3.70;;;21.30;99.90;;;;;;5040914;28;20060;-50
2022/05/22 05:50:26;;;;;;;7.85;4.13;;;21.30;99.90;;;;;;5043251;28;20442;-48
2022/05/22 05:52:58;;;;;;;5.72;4.15;;;21.40;99.90;;;;;;5037504;28;20136;-45
2022/05/22 05:55:24;;;;;;;;;;;21.40;99.90;;;;;;5040176;28;20087;-49
2022/05/22 05:57:50;;;;;;;6.60;4.38;;;21.30;99.90;;;;;;5035985;28;20277;-49
2022/05/22 06:00:19;;;;;;;6.15;4.30;;;21.30;99.90;;;;;;5035176;28;20033;-48
2022/05/22 06:02:45;;;;;;;11.20;5.03;;;21.30;99.90;;;;;;5035456;28;20065;-47
2022/05/22 06:05:12;;;;;;;8.60;4.30;;;21.30;99.90;;;;;;5032660;28;20024;-48
2022/05/22 06:07:38;;;;;;;5.13;3.90;;;21.40;99.90;;;;;;5036491;28;20043;-46
2022/05/22 06:10:10;;;;;;;6.30;3.90;;;21.40;99.90;;;;;;5037423;28;20025;-47
2022/05/22 06:12:36;;;;;;;6.80;3.90;;;21.40;99.90;;;;;;5036461;28;20041;-50
2022/05/22 06:15:02;;;;;;;6.45;3.67;;;21.40;99.90;;;;;;5039172;28;20075;-50
2022/05/22 06:17:33;;;;;;;5.43;4.20;;;21.50;99.90;;;;;;5039190;28;20042;-49
2022/05/22 06:19:59;;;;;;;7.50;3.80;;;21.70;99.90;;;;;;5031058;28;20037;-54
2022/05/22 06:22:26;;;;;;;5.88;4.05;;;21.70;99.90;;;;;;5033988;28;20030;-48
2022/05/22 06:24:53;;;;;;;7.68;4.03;;;21.90;99.90;;;;;;5030117;28;20136;-44
2022/05/22 06:27:19;;;;;;;11.02;4.15;;;22.10;99.90;;;;;;5036611;28;20049;-53
2022/05/22 06:29:45;;;;;;;4.80;3.88;;;22.20;99.90;;;;;;5019360;28;20034;-44
2022/05/22 06:32:13;;;;;;;6.43;2.97;;;22.20;99.90;;;;;;5039038;28;20053;-44
2022/05/22 06:34:42;;;;;;;5.50;3.65;;;22.30;99.90;;;;;;5033762;28;20029;-47
2022/05/22 06:37:12;;;;;;;4.63;3.25;;;22.30;99.90;;;;;;5036122;28;20412;-48
2022/05/22 06:40:12;;;;;;;6.90;3.65;;;22.40;99.90;;;;;;5033443;28;20041;-49
2022/05/22 06:42:35;;;;;;;5.55;4.13;;;22.50;99.90;;;;;;5036629;28;20061;-48
2022/05/22 06:45:06;;;;;;;5.47;3.40;;;22.70;99.90;;;;;;5039480;28;20104;-49
2022/05/22 06:47:33;;;;;;;4.65;3.15;;;;;;;;;;5034293;28;20041;-48
2022/05/22 06:49:59;;;;;;;6.50;2.75;;;23.60;99.90;;;;;;5037176;28;20048;-47
2022/05/22 06:52:25;;;;;;;5.15;2.58;;;23.70;99.90;;;;;;5037749;28;20033;-51
2022/05/22 06:54:51;;;;;;;4.97;2.95;;;23.90;99.90;;;;;;5033627;28;20112;-50
2022/05/22 06:57:19;;;;;;;4.68;2.80;;;23.90;99.90;;;;;;5033468;28;20631;-50
2022/05/22 06:59:46;;;;;;;3.83;3.03;;;24.00;99.90;;;;;;5041390;28;20092;-50
2022/05/22 07:02:14;;;;;;;3.78;2.30;;;24.10;99.90;;;;;;5027033;28;20747;-50
2022/05/22 07:04:40;;;;;;;3.40;2.55;;;;;;;;;;5035280;28;20065;-50
2022/05/22 07:07:07;;;;;;;4.78;2.35;;;24.50;99.90;;;;;;5037016;28;20512;-49
2022/05/22 07:09:33;;;;;;;5.10;2.58;;;24.80;99.90;;;;;;5032665;28;20084;-50
2022/05/22 07:11:59;;;;;;;3.65;2.80;;;;;;;;;;5018518;28;20084;-50
2022/05/22 07:14:27;;;;;;;4.15;2.70;;;;;;;;;;5013111;28;20097;-50
2022/05/22 07:16:54;;;;;;;4.13;2.78;;;25.40;99.90;;;;;;5034309;28;20401;-51
2022/05/22 07:19:20;;;;;;;6.35;2.80;;;;;;;;;;5052829;28;20049;-50
2022/05/22 07:21:47;;;;;;;3.83;2.70;;;;;;;;;;5035743;28;20021;-50
2022/05/22 07:24:14;;;;;;;6.40;3.17;;;;;;;;;;5052834;28;20523;-50
2022/05/22 07:26:40;;;;;;;4.18;2.70;;;;;;;;;;5035727;28;20029;-50
2022/05/22 07:29:06;;;;;;;4.90;3.00;;;;;;;;;;5036019;28;20029;-50
2022/05/22 07:31:34;;;;;;;4.75;2.78;;;;;;;;;;5034322;28;20038;-50
2022/05/22 07:34:00;;;;;;;4.75;2.80;;;;;;;;;;5033291;28;20127;-51
2022/05/22 07:36:26;;;;;;;3.35;2.63;;;;;;;;;;5035367;28;20083;-50
2022/05/22 07:38:53;;;;;;;8.75;3.40;;;;;;;;;;5037253;28;20040;-50
2022/05/22 07:41:19;;;;;;;5.00;3.88;;;;;;;;;;5033527;28;20029;-50
2022/05/22 07:43:46;;;;;;;5.63;3.92;;;;;;;;;;5035282;28;20056;-50
2022/05/22 07:46:13;;;;;;;6.18;3.65;;;26.50;99.90;;;;;;5027486;28;20488;-52
2022/05/22 07:48:41;;;;;;;4.72;3.47;;;26.60;99.90;;;;;;5027099;28;20064;-51
2022/05/22 07:51:08;;;;;;;6.75;3.55;;;;;;;;;;5016676;28;20367;-50
2022/05/22 07:53:34;;;;;;;6.13;3.28;;;;;;;;;;5034406;28;20030;-51
2022/05/22 07:56:01;;;;;;;4.97;3.17;;;;;;;;;;5045599;28;20469;-52
2022/05/22 07:58:28;;;;;;;5.38;3.35;;;;;;;;;;5031569;28;20477;-50
2022/05/22 08:00:55;;;;;;;5.85;2.63;;;;;;;;;;5034650;28;20018;-51
2022/05/22 08:03:21;;;;;;;5.10;3.47;;;;;;;;;;5033259;28;20061;-50
2022/05/22 08:05:47;;;;;;;4.00;2.85;;;;;;;;;;5035829;28;20104;-50
2022/05/22 08:08:14;;;;;;;4.65;2.90;;;;;;;;;;5035793;28;20059;-50
2022/05/22 08:10:41;;;;;;;4.15;2.60;;;;;;;;;;5033135;28;20104;-50
2022/05/22 08:13:08;;;;;;;5.80;2.60;;;;;;;;;;5035780;28;20029;-50
2022/05/22 08:15:35;;;;;;;6.78;2.95;;;;;;;;;;5013079;28;20440;-50
2022/05/22 08:18:01;;;;;;;4.53;3.03;;;;;;;;;;5030681;28;20130;-52
2022/05/22 08:20:29;;;;;;;5.72;3.60;;;27.60;99.90;;;;;;5033065;28;20283;-51
2022/05/22 08:23:00;;;;;;;6.30;3.38;;;27.60;99.90;;;;;;5029720;28;20025;-50
2022/05/22 08:25:28;;;;;;;5.28;3.22;;;27.90;99.90;;;;;;5028872;28;20053;-50
2022/05/22 08:27:55;;;;;;;3.63;2.65;;;28.10;99.90;;;;;;5034655;28;20421;-50
2022/05/22 08:30:23;;;;;;;3.80;3.13;;;28.00;99.90;;;;;;5031483;28;20517;-51
2022/05/22 08:32:49;;;;;;;5.20;3.00;;;;;;;;;;5033692;28;20207;-51
2022/05/22 08:35:18;;;;;;;3.65;2.72;;;;;;;;;;5033022;28;20048;-50
2022/05/22 08:37:43;;;;;;;5.93;2.53;;;27.90;99.90;;;;;;5030205;28;20033;-51
2022/05/22 08:40:13;;;;;;;3.47;2.63;;;28.20;99.90;;;;;;5022342;28;20392;-52
2022/05/22 08:42:41;;;;;;;4.60;2.70;;;28.00;99.90;;;;;;5041256;28;20031;-51
2022/05/22 08:45:27;;;;;;;7.13;2.60;;;;;;;;;;5030519;28;20496;-50
2022/05/22 08:48:07;;;;;;;3.30;2.30;;;;;;;;;;5035849;28;20032;-50
2022/05/22 08:50:34;;;;;;;3.80;2.97;;;;;;;;;;5031990;28;20029;-50
2022/05/22 08:53:09;;;;;;;3.75;2.15;;;;;;;;;;5035493;28;20032;-50
2022/05/22 09:01:18;;;;;;;3.30;2.58;;;;;;;;;;5022766;28;20587;-52
2022/05/22 09:03:50;;;;;;;7.72;3.10;;;;;;;;;;5023173;28;20589;-51
2022/05/22 09:06:17;;;;;;;4.03;2.58;;;;;;;;;;5028857;28;20447;-51
2022/05/22 09:08:46;;;;;;;7.75;2.80;;;;;;;;;;5029440;28;20033;-51
2022/05/22 09:11:14;;;;;;;6.55;2.00;;;;;;;;;;5021580;28;20041;-50
2022/05/22 09:13:46;;;;;;;4.28;2.80;;;;;;;;;;5026377;28;20036;-50
2022/05/22 09:16:15;;;;;;;5.78;2.13;;;;;;;;;;5024456;28;20047;-51
2022/05/22 09:18:45;;;;;;;4.15;1.90;;;;;;;;;;5024441;28;20041;-48
2022/05/22 09:21:14;;;;;;;5.13;2.35;;;;;;;;;;5027884;28;20512;-52
2022/05/22 09:23:54;;;;;;;5.15;2.28;;;;;;;;;;5033062;28;20045;-48
2022/05/22 09:26:20;;;;;;;3.33;2.20;;;;;;;;;;5014897;28;20080;-50
2022/05/22 09:28:52;;;;;;;4.65;2.03;;;;;;;;;;5033992;28;20040;-56
2022/05/22 09:31:59;;;;;;;2.40;1.90;;;29.40;99.90;;;;;;5032658;28;20045;-52
2022/05/22 09:34:40;;;;;;;3.10;1.88;;;29.40;98.70;;;;;;5031645;28;20424;-52
2022/05/22 09:37:22;;;;;;;2.72;2.22;;;30.20;97.50;;;;;;5033735;28;20083;-52
2022/05/22 09:40:00;;;;;;;2.47;1.90;;;30.20;97.10;;;;;;5036381;28;20119;-46
2022/05/22 09:42:41;;;;;;;4.35;2.50;;;;;;;;;;5044237;28;20481;-49
2022/05/22 09:45:07;;;;;;;2.45;1.65;;;;;;;;;;5035237;28;20018;-52
2022/05/22 09:47:33;;;;;;;3.80;1.52;;;31.10;99.90;;;;;;5041481;28;20028;-48
2022/05/22 09:50:11;;;;;;;4.22;1.95;;;31.40;93.90;;;;;;5038319;28;20439;-57
2022/05/22 09:52:53;;;;;;;2.05;1.73;;;31.40;95.20;;;;;;5037991;28;20087;-58
2022/05/22 09:55:31;;;;;;;2.85;1.45;;;;;;;;;;5037920;28;20116;-51
2022/05/22 09:58:19;;;;;;;3.70;2.15;;;31.40;91.40;;;;;;5039901;28;20121;-51
2022/05/22 10:01:18;;;;;;;3.95;1.70;;;31.60;92.40;;;;;;5035490;28;20076;-47
2022/05/22 10:04:12;;;;;;;1.95;1.75;;;31.90;91.00;;;;;;5037083;28;20033;-48
2022/05/22 10:06:59;;;;;;;3.08;2.63;;;32.00;92.80;;;;;;5036281;28;20025;-49
2022/05/22 10:09:37;;;;;;;4.50;2.03;;;32.00;92.40;;;;;;5052227;28;20037;-53
2022/05/22 10:12:44;;;;;;;3.33;2.10;;;32.00;92.40;;;;;;5033194;28;20049;-50
2022/05/22 10:15:19;;;;;;;2.10;1.50;;;32.50;92.50;;;;;;4999289;28;20484;-52
2022/05/22 10:18:09;;;;;;;4.88;1.80;;;32.60;91.30;;;;;;5019190;28;20073;-49
2022/05/22 10:21:04;;;;;;;4.60;1.98;;;32.60;91.40;;;;;;5024410;28;20049;-56
2022/05/22 10:23:50;;;;;;;2.45;2.00;;;32.00;91.10;;;;;;5024026;28;20057;-50
2022/05/22 10:26:40;;;;;;;4.07;1.95;;;31.20;91.90;;;;;;5023305;28;20045;-48
2022/05/22 10:29:22;;;;;;;2.05;1.65;;;30.60;99.90;;;;;;5020904;28;20057;-50
2022/05/22 10:31:48;;;;;;;;;;;;;;;;;;5022024;28;20108;-47
2022/05/22 10:34:44;;;;;;;2.13;1.42;;;31.50;99.90;;;;;;5016153;28;20448;-52
2022/05/22 10:37:41;;;;;;;3.08;1.83;;;31.90;90.60;;;;;;5026515;28;20076;-49
2022/05/22 10:40:20;;;;;;;4.00;2.05;;;32.40;87.60;;;;;;4966747;28;20168;-50
2022/05/22 10:42:51;;;;;;;6.50;1.70;;;32.80;89.70;;;;;;4932719;29;20040;-49
2022/05/22 10:45:26;;;;;;;2.58;1.70;;;33.10;88.40;;;;;;4930958;29;20448;-49
2022/05/22 10:47:54;;;;;;;2.75;1.92;;;33.20;88.40;;;;;;4932468;29;20154;-48
2022/05/22 10:50:25;;;;;;;3.03;1.73;;;32.90;87.80;;;;;;4929730;29;20617;-50
2022/05/22 10:52:50;;;;;;;3.90;2.00;;;33.00;87.80;;;;;;4883676;29;20111;-51
2022/05/22 10:55:24;;;;;;;4.55;2.50;;;;;;;;;;4911330;29;20760;-49
2022/05/22 10:57:55;;;;;;;1.42;1.33;;;33.80;85.40;;;;;;4919319;29;20044;-51
2022/05/22 11:00:21;;;;;;;;;;;33.70;85.90;;;;;;4913946;29;20051;-49
2022/05/22 11:02:47;;;;;;;3.78;1.98;;;;;;;;;;4911524;29;19915;-48
2022/05/22 11:05:20;;;;;;;3.90;1.92;;;34.00;84.60;;;;;;4912884;29;20043;-49
2022/05/22 11:07:54;;;;;;;3.45;1.63;;;33.60;84.90;;;;;;4860775;29;20047;-49
2022/05/22 11:10:33;;;;;;;5.22;2.10;;;33.50;86.40;;;;;;4914649;29;20036;-47
2022/05/22 11:13:12;;;;;;;4.13;1.90;;;33.50;85.70;;;;;;4914060;29;20040;-47
2022/05/22 11:15:42;;;;;;;3.33;2.20;;;33.90;87.60;;;;;;4925266;28;20113;-50
2022/05/22 11:18:17;;;;;;;3.92;2.22;;;33.40;86.40;;;;;;4988991;28;20041;-52
2022/05/22 11:21:04;;;;;;;3.08;2.05;;;32.80;86.40;;;;;;5024768;28;20122;-49
2022/05/22 11:23:52;;;;;;;2.00;1.73;;;33.40;87.60;;;;;;5027738;28;20084;-49
2022/05/22 11:26:39;;;;;;;2.65;1.67;;;32.60;85.40;;;;;;5032241;28;20579;-49
2022/05/22 11:29:06;;;;;;;2.20;1.70;;;32.70;86.40;;;;;;5049616;28;20493;-48
2022/05/22 11:31:55;;;;;;;3.63;2.28;;;32.90;86.00;;;;;;5033762;28;20033;-47
2022/05/22 11:34:59;;;;;;;2.83;1.92;;;33.50;86.20;;;;;;5033104;28;20083;-45
2022/05/22 11:37:24;;;;;;;3.53;2.35;;;33.50;84.50;;;;;;5034625;28;20033;-47
2022/05/22 11:40:33;;;;;;;3.42;1.80;;;32.30;84.50;;;;;;5038089;28;20033;-48
2022/05/22 11:43:21;;;;;;;4.38;2.15;;;31.60;85.30;;;;;;5028757;28;20033;-46
2022/05/22 11:46:05;;;;;;;3.20;2.25;;;32.80;88.40;;;;;;5030210;28;20030;-46
2022/05/22 11:48:41;;;;;;;4.15;1.73;;;32.80;86.50;;;;;;5032850;28;20474;-45
2022/05/22 11:51:44;;;;;;;2.58;1.90;;;32.90;84.70;;;;;;5033947;28;20034;-49
2022/05/22 11:54:46;;;;;;;4.57;1.88;;;33.20;85.00;;;;;;5038502;28;20029;-45
2022/05/22 11:57:31;;;;;;;3.85;2.03;;;33.40;82.10;;;;;;5029956;28;20550;-46
2022/05/22 12:00:26;;;;;;;3.42;1.60;;;33.60;82.50;;;;;;5031582;28;20103;-45
2022/05/22 12:02:57;;;;;;;2.42;1.65;;;33.60;81.30;;;;;;5028766;28;20033;-48
2022/05/22 12:05:39;;;;;;;3.25;1.50;;;33.40;82.30;;;;;;5032879;28;20029;-49
2022/05/22 12:08:46;;;;;;;6.05;2.35;;;32.90;81.40;;;;;;5033696;28;20124;-48
2022/05/22 12:11:12;;;;;;;3.60;2.03;;;31.80;82.60;;;;;;5032343;28;20055;-47
2022/05/22 12:13:55;;;;;;;5.25;1.70;;;32.70;83.40;;;;;;5017216;28;20037;-48
2022/05/22 12:16:39;;;;;;;4.18;1.80;;;33.10;83.40;;;;;;5031642;28;20045;-47
2022/05/22 12:19:25;;;;;;;2.22;1.52;;;33.40;82.80;;;;;;5027509;28;20033;-49
2022/05/22 12:22:10;;;;;;;3.80;1.38;;;33.40;80.30;;;;;;5025880;28;20045;-49
2022/05/22 12:24:57;;;;;;;2.53;1.50;;;;;;;;;;5031977;28;20401;-47
2022/05/22 12:27:26;;;;;;;2.38;1.60;;;33.80;80.50;;;;;;5035282;28;20033;-46
2022/05/22 12:30:02;;;;;;;3.15;1.70;;;34.00;83.70;;;;;;4979566;28;20056;-46
2022/05/22 12:32:30;;;;;;;6.10;1.50;;;34.00;83.10;;;;;;5024463;28;20099;-46
2022/05/22 12:34:58;;;;;;;2.22;1.50;;;;;;;;;;5024320;28;20037;-48
2022/05/22 12:37:26;;;;;;;3.33;1.38;;;34.50;91.10;;;;;;5032116;28;20037;-49
2022/05/22 12:40:07;;;;;;;3.05;1.40;;;34.90;86.80;;;;;;5031129;28;20045;-48
2022/05/22 12:42:36;;;;;;;;;;;34.50;84.20;;;;;;5029685;28;20445;-49
2022/05/22 12:45:03;;;;;;;2.03;1.35;;;35.20;88.20;;;;;;5027464;28;19999;-47
2022/05/22 12:47:46;;;;;;;1.88;1.40;;;35.00;83.60;;;;;;5034366;28;20049;-48
2022/05/22 12:50:32;;;;;;;3.00;1.58;;;35.40;78.40;;;;;;5028981;28;20056;-49
2022/05/22 12:52:59;;;;;;;2.20;1.40;;;35.00;78.90;;;;;;5031775;28;20064;-48
2022/05/22 12:55:28;;;;;;;5.72;2.10;;;34.30;76.60;;;;;;5029220;28;20075;-49
2022/05/22 12:58:01;;;;;;;1.70;1.30;;;34.50;78.60;;;;;;5035336;28;20029;-49
2022/05/22 13:00:39;;;;;;;3.05;1.50;;;34.50;77.70;;;;;;5029460;28;20048;-49
2022/05/22 13:03:11;;;;;;;2.40;1.40;;;34.30;78.30;;;;;;5047250;28;20044;-51
2022/05/22 13:05:37;;;;;;;5.28;3.13;;;34.10;78.30;;;;;;5035133;28;20465;-48
2022/05/22 13:08:14;;;;;;;2.90;1.40;;;33.80;79.30;;;;;;5036002;28;20057;-49
2022/05/22 13:10:49;;;;;;;1.67;1.30;;;34.10;78.20;;;;;;5026155;28;20065;-46
2022/05/22 13:13:24;;;;;;;2.50;1.52;;;33.90;77.40;;;;;;5029259;28;20033;-50
2022/05/22 13:16:04;;;;;;;2.58;1.48;;;33.70;82.60;;;;;;5024876;28;20037;-46
2022/05/22 13:18:31;;;;;;;2.03;1.30;;;33.70;93.80;;;;;;5033564;28;20029;-49
2022/05/22 13:21:00;;;;;;;1.48;1.30;;;33.50;92.10;;;;;;5032070;28;20029;-50
2022/05/22 13:23:31;;;;;;;3.60;2.28;;;33.80;92.90;;;;;;5034961;28;20041;-49
2022/05/22 13:26:17;;;;;;;2.00;1.40;;;33.90;93.00;;;;;;5037214;28;20551;-48
2022/05/22 13:28:47;;;;;;;3.28;1.30;;;34.00;91.80;;;;;;5027442;28;20656;-49
2022/05/22 13:31:13;;;;;;;1.30;1.20;;;34.00;90.40;;;;;;5026430;28;20033;-47
2022/05/22 13:34:06;;;;;;;2.65;1.30;;;33.80;91.10;;;;;;5029354;28;20033;-50
2022/05/22 13:36:40;;;;;;;2.67;1.85;;;33.80;91.10;;;;;;5033775;28;20032;-49
2022/05/22 13:39:13;;;;;;;4.45;1.40;;;33.70;85.70;;;;;;5030743;28;20599;-49
2022/05/22 13:41:53;;;;;;;4.65;2.03;;;33.80;77.60;;;;;;5035560;28;20025;-48